createdAt,value
2017-08-22T00:01:54.391Z,94.83
2017-08-22T00:04:21.853Z,94.94
2017-08-22T00:06:49.297Z,95.44
2017-08-22T00:09:16.756Z,96.05
2017-08-22T00:11:44.210Z,96.39
2017-08-22T00:14:11.653Z,96.07
2017-08-22T00:16:39.128Z,97.25
2017-08-22T00:19:06.578Z,97.06
2017-08-22T00:21:34.051Z,96.64
2017-08-22T00:24:01.517Z,96.87
2017-08-22T00:26:28.986Z,96.14
2017-08-22T00:28:56.429Z,97.18
2017-08-22T00:31:23.898Z,97.21
2017-08-22T00:33:51.356Z,96.97
2017-08-22T00:36:18.801Z,97.00
2017-08-22T00:38:46.274Z,97.05
2017-08-22T00:41:13.728Z,98.10
2017-08-22T00:43:41.200Z,97.98
2017-08-22T00:46:08.645Z,97.64
2017-08-22T00:48:36.131Z,97.85
2017-08-22T00:51:03.607Z,96.78
2017-08-22T00:53:31.062Z,97.16
2017-08-22T00:55:58.529Z,97.96
2017-08-22T00:58:26.020Z,98.64
2017-08-22T01:00:53.470Z,98.33
2017-08-22T01:03:20.948Z,98.82
2017-08-22T01:05:48.413Z,99.19
2017-08-22T01:08:15.891Z,98.83
2017-08-22T01:10:43.345Z,98.51
2017-08-22T01:13:10.789Z,98.87
2017-08-22T01:15:38.255Z,98.40
2017-08-22T01:18:05.700Z,98.94
2017-08-22T01:20:33.183Z,98.97
2017-08-22T01:23:00.653Z,99.33
2017-08-22T01:25:28.132Z,99.29
2017-08-22T01:27:55.581Z,99.02
2017-08-22T01:30:23.033Z,97.80
2017-08-22T01:32:50.525Z,97.69
2017-08-22T01:35:17.974Z,98.18
2017-08-22T01:37:45.431Z,99.40
2017-08-22T01:40:12.917Z,98.65
2017-08-22T01:42:40.361Z,98.66
2017-08-22T01:45:07.833Z,98.82
2017-08-22T01:47:35.300Z,99.26
2017-08-22T01:50:02.746Z,98.49
2017-08-22T01:52:30.219Z,98.49
2017-08-22T01:54:57.669Z,99.17
2017-08-22T01:57:25.138Z,99.49
2017-08-22T01:59:52.588Z,99.72
2017-08-22T02:02:20.053Z,99.40
2017-08-22T02:04:47.514Z,99.85
2017-08-22T02:07:14.981Z,99.63
2017-08-22T02:09:42.423Z,99.08
2017-08-22T02:12:09.870Z,99.76
2017-08-22T02:14:37.358Z,99.92
2017-08-22T02:17:04.824Z,99.92
2017-08-22T02:19:32.301Z,99.46
2017-08-22T02:21:59.769Z,99.47
2017-08-22T02:24:27.237Z,98.81
2017-08-22T02:26:54.689Z,99.08
2017-08-22T02:29:22.165Z,98.88
2017-08-22T02:31:49.652Z,99.63
2017-08-22T02:34:17.112Z,100.00
2017-08-22T02:36:44.573Z,100.00
2017-08-22T02:39:12.045Z,100.00
2017-08-22T02:41:39.502Z,100.00
2017-08-22T02:44:06.982Z,100.00
2017-08-22T02:46:34.459Z,100.00
2017-08-22T02:49:01.905Z,100.00
2017-08-22T02:51:29.394Z,100.00
2017-08-22T02:53:56.851Z,99.87
2017-08-22T02:56:24.329Z,100.00
2017-08-22T02:58:51.780Z,100.00
2017-08-22T03:01:19.257Z,99.60
2017-08-22T03:03:46.712Z,100.00
2017-08-22T03:06:14.193Z,99.30
2017-08-22T03:08:41.657Z,99.29
2017-08-22T03:11:09.120Z,99.84
2017-08-22T03:13:36.572Z,100.00
2017-08-22T03:16:04.016Z,100.00
2017-08-22T03:18:31.494Z,100.00
2017-08-22T03:20:58.967Z,100.00
2017-08-22T03:23:26.429Z,100.00
2017-08-22T03:25:53.913Z,100.00
2017-08-22T03:28:21.361Z,100.00
2017-08-22T03:30:48.805Z,100.00
2017-08-22T03:33:16.293Z,100.00
2017-08-22T03:35:43.746Z,100.00
2017-08-22T03:38:11.200Z,100.00
2017-08-22T03:40:38.672Z,100.00
2017-08-22T03:43:06.129Z,100.00
2017-08-22T03:45:33.610Z,100.00
2017-08-22T03:48:01.068Z,100.00
2017-08-22T03:50:28.541Z,100.00
2017-08-22T03:52:55.998Z,100.00
2017-08-22T03:55:23.469Z,99.19
2017-08-22T03:57:50.941Z,99.22
2017-08-22T04:00:18.421Z,99.32
2017-08-22T04:02:45.873Z,100.00
2017-08-22T04:05:13.346Z,99.01
2017-08-22T04:07:40.822Z,98.80
2017-08-22T04:10:08.296Z,99.34
2017-08-22T04:12:35.740Z,99.09
2017-08-22T04:15:03.208Z,98.89
2017-08-22T04:17:30.669Z,98.85
2017-08-22T04:19:58.146Z,98.26
2017-08-22T04:22:25.597Z,98.57
2017-08-22T04:24:53.047Z,99.16
2017-08-22T04:27:20.511Z,98.02
2017-08-22T04:29:47.954Z,98.18
2017-08-22T04:32:15.445Z,99.34
2017-08-22T04:34:42.880Z,99.22
2017-08-22T04:39:47.161Z,98.04
2017-08-22T04:42:14.618Z,97.59
2017-08-22T04:44:42.089Z,97.36
2017-08-22T04:47:09.537Z,97.48
2017-08-22T04:49:36.977Z,97.10
2017-08-22T04:52:04.449Z,97.91
2017-08-22T04:54:32.301Z,96.54
2017-08-22T04:56:59.748Z,97.90
2017-08-22T04:59:27.217Z,96.75
2017-08-22T05:01:54.689Z,96.47
2017-08-22T05:04:22.134Z,98.91
2017-08-22T05:06:49.609Z,99.16
2017-08-22T05:09:17.060Z,99.31
2017-08-22T05:11:44.515Z,97.72
2017-08-22T05:14:11.985Z,95.97
2017-08-22T05:16:39.432Z,94.98
2017-08-22T05:19:06.905Z,95.52
2017-08-22T05:21:34.360Z,94.84
2017-08-22T05:24:01.830Z,96.80
2017-08-22T05:26:29.302Z,95.08
2017-08-22T05:28:56.801Z,94.48
2017-08-22T05:31:24.257Z,94.42
2017-08-22T05:33:51.735Z,93.64
2017-08-22T05:36:19.189Z,94.05
2017-08-22T05:38:46.656Z,92.97
2017-08-22T05:41:14.105Z,94.50
2017-08-22T05:43:41.547Z,91.63
2017-08-22T05:46:09.025Z,93.99
2017-08-22T05:48:36.482Z,93.10
2017-08-22T05:51:03.957Z,94.19
2017-08-22T05:53:31.401Z,93.04
2017-08-22T05:55:58.873Z,92.93
2017-08-22T05:58:26.330Z,92.62
2017-08-22T06:00:53.810Z,92.57
2017-08-22T06:03:21.303Z,92.83
2017-08-22T06:05:48.758Z,92.59
2017-08-22T06:08:16.241Z,92.32
2017-08-22T06:10:43.696Z,92.01
2017-08-22T06:13:11.153Z,91.76
2017-08-22T06:15:38.641Z,92.05
2017-08-22T06:18:06.103Z,92.03
2017-08-22T06:20:33.589Z,92.40
2017-08-22T06:23:01.066Z,91.13
2017-08-22T06:25:28.522Z,91.02
2017-08-22T06:27:55.993Z,90.05
2017-08-22T06:30:23.443Z,90.89
2017-08-22T06:32:50.929Z,89.84
2017-08-22T06:35:18.381Z,90.15
2017-08-22T06:37:45.883Z,89.76
2017-08-22T06:40:13.339Z,89.60
2017-08-22T06:42:40.813Z,88.83
2017-08-22T06:45:08.294Z,89.89
2017-08-22T06:47:36.044Z,90.06
2017-08-22T06:50:03.518Z,89.08
2017-08-22T06:52:30.984Z,87.89
2017-08-22T06:54:58.437Z,87.15
2017-08-22T06:57:25.889Z,87.52
2017-08-22T06:59:53.361Z,85.93
2017-08-22T07:02:20.805Z,86.25
2017-08-22T07:04:48.262Z,84.62
2017-08-22T07:07:15.738Z,83.98
2017-08-22T07:09:43.199Z,83.60
2017-08-22T07:12:10.658Z,84.62
2017-08-22T07:14:38.153Z,83.90
2017-08-22T07:17:05.610Z,84.49
2017-08-22T07:19:33.088Z,83.16
2017-08-22T07:22:00.541Z,83.89
2017-08-22T07:24:28.001Z,82.86
2017-08-22T07:26:55.472Z,80.78
2017-08-22T07:29:22.925Z,80.99
2017-08-22T07:31:50.399Z,80.27
2017-08-22T07:34:17.845Z,81.88
2017-08-22T07:36:45.467Z,80.23
2017-08-22T07:39:12.914Z,79.15
2017-08-22T07:41:40.381Z,79.20
2017-08-22T07:44:07.849Z,78.11
2017-08-22T07:46:35.333Z,77.65
2017-08-22T07:49:02.804Z,77.60
2017-08-22T07:51:30.286Z,76.96
2017-08-22T07:53:57.733Z,77.31
2017-08-22T07:56:25.180Z,77.19
2017-08-22T07:58:52.649Z,76.35
2017-08-22T08:01:20.099Z,73.53
2017-08-22T08:03:47.578Z,74.99
2017-08-22T08:06:15.050Z,72.74
2017-08-22T08:08:42.553Z,73.46
2017-08-22T08:11:10.000Z,73.59
2017-08-22T08:13:37.474Z,73.75
2017-08-22T08:16:04.941Z,72.70
2017-08-22T08:18:32.414Z,72.06
2017-08-22T08:20:59.861Z,73.36
2017-08-22T08:23:27.336Z,72.12
2017-08-22T08:25:54.782Z,72.18
2017-08-22T08:28:22.254Z,71.58
2017-08-22T08:30:49.708Z,70.02
2017-08-22T08:33:17.176Z,68.22
2017-08-22T08:35:44.626Z,65.87
2017-08-22T08:38:12.082Z,66.21
2017-08-22T08:40:39.558Z,65.37
2017-08-22T08:43:07.009Z,68.54
2017-08-22T08:45:34.473Z,64.74
2017-08-22T08:48:01.927Z,65.88
2017-08-22T08:50:29.393Z,64.83
2017-08-22T08:52:56.865Z,67.06
2017-08-22T08:55:24.308Z,66.55
2017-08-22T08:57:51.766Z,66.14
2017-08-22T09:00:19.236Z,66.73
2017-08-22T09:02:46.691Z,64.64
2017-08-22T09:05:14.164Z,65.24
2017-08-22T09:07:41.613Z,66.14
2017-08-22T09:10:09.083Z,65.47
2017-08-22T09:12:36.521Z,67.15
2017-08-22T09:15:04.165Z,64.42
2017-08-22T09:17:31.626Z,66.27
2017-08-22T09:19:59.094Z,64.22
2017-08-22T09:22:26.569Z,63.68
2017-08-22T09:24:54.039Z,62.10
2017-08-22T09:27:21.496Z,61.63
2017-08-22T09:29:48.961Z,59.81
2017-08-22T09:32:16.421Z,58.45
2017-08-22T09:34:43.893Z,57.40
2017-08-22T09:37:11.357Z,58.61
2017-08-22T09:39:38.835Z,58.77
2017-08-22T09:42:06.311Z,58.07
2017-08-22T09:44:33.775Z,59.55
2017-08-22T09:47:01.258Z,57.97
2017-08-22T09:49:28.728Z,58.00
2017-08-22T09:51:56.169Z,54.08
2017-08-22T09:54:23.637Z,54.31
2017-08-22T09:56:51.085Z,53.58
2017-08-22T09:59:18.553Z,53.42
2017-08-22T10:01:45.997Z,54.75
2017-08-22T10:04:13.447Z,52.37
2017-08-22T10:06:40.914Z,53.49
2017-08-22T10:09:08.356Z,52.51
2017-08-22T10:11:35.800Z,52.54
2017-08-22T10:14:03.277Z,54.68
2017-08-22T10:16:30.746Z,47.15
2017-08-22T10:18:58.815Z,47.76
2017-08-22T10:21:26.285Z,50.32
2017-08-22T10:23:53.761Z,47.34
2017-08-22T10:26:21.205Z,46.52
2017-08-22T10:28:48.650Z,46.27
2017-08-22T10:31:16.118Z,44.33
2017-08-22T10:33:43.566Z,44.78
2017-08-22T10:36:11.045Z,44.05
2017-08-22T10:38:38.493Z,42.92
2017-08-22T10:41:05.946Z,42.39
2017-08-22T10:43:33.400Z,40.85
2017-08-22T10:46:00.851Z,42.38
2017-08-22T10:48:28.337Z,45.26
2017-08-22T10:50:55.792Z,41.63
2017-08-22T10:53:23.247Z,39.61
2017-08-22T10:55:50.717Z,40.91
2017-08-22T10:58:18.169Z,41.39
2017-08-22T11:00:45.636Z,38.50
2017-08-22T11:03:13.089Z,37.42
2017-08-22T11:05:40.570Z,39.09
2017-08-22T11:08:08.017Z,38.46
2017-08-22T11:10:35.473Z,37.02
2017-08-22T11:13:02.950Z,38.85
2017-08-22T11:15:30.412Z,36.81
2017-08-22T11:17:57.881Z,38.82
2017-08-22T11:20:25.327Z,37.64
2017-08-22T11:22:52.773Z,38.87
2017-08-22T11:25:20.239Z,35.67
2017-08-22T11:27:47.693Z,38.85
2017-08-22T11:30:15.164Z,37.01
2017-08-22T11:32:42.615Z,35.16
2017-08-22T11:35:10.086Z,36.15
2017-08-22T11:37:37.532Z,36.31
2017-08-22T11:40:05.006Z,36.80
2017-08-22T11:42:32.459Z,36.89
2017-08-22T11:44:59.940Z,35.29
2017-08-22T11:47:27.378Z,36.70
2017-08-22T11:49:54.823Z,37.78
2017-08-22T11:52:22.292Z,36.01
2017-08-22T11:54:49.748Z,36.45
2017-08-22T11:57:17.224Z,37.89
2017-08-22T11:59:44.694Z,36.30
2017-08-22T12:02:12.137Z,36.18
2017-08-22T12:04:39.584Z,35.08
2017-08-22T12:07:07.050Z,37.18
2017-08-22T12:09:34.520Z,39.98
2017-08-22T12:12:01.975Z,41.13
2017-08-22T12:14:29.427Z,40.82
2017-08-22T12:16:56.929Z,37.48
2017-08-22T12:19:24.392Z,37.22
2017-08-22T12:21:51.873Z,37.21
2017-08-22T12:24:19.322Z,38.17
2017-08-22T12:26:46.961Z,40.65
2017-08-22T12:29:14.434Z,38.65
2017-08-22T12:31:41.888Z,38.48
2017-08-22T12:34:09.342Z,36.20
2017-08-22T12:36:36.814Z,35.04
2017-08-22T12:39:04.297Z,34.14
2017-08-22T12:41:31.749Z,32.24
2017-08-22T12:43:59.199Z,33.38
2017-08-22T12:46:26.664Z,31.53
2017-08-22T12:48:54.105Z,33.77
2017-08-22T12:51:21.590Z,32.59
2017-08-22T12:53:49.041Z,30.88
2017-08-22T12:56:16.485Z,31.85
2017-08-22T12:58:43.945Z,31.32
2017-08-22T13:01:11.427Z,32.57
2017-08-22T13:03:38.897Z,30.87
2017-08-22T13:06:06.356Z,31.29
2017-08-22T13:08:33.829Z,30.71
2017-08-22T13:11:01.274Z,32.80
2017-08-22T13:13:28.815Z,36.11
2017-08-22T13:15:56.261Z,31.47
2017-08-22T13:18:23.729Z,31.97
2017-08-22T13:20:51.664Z,34.43
2017-08-22T13:23:19.109Z,33.93
2017-08-22T13:25:46.583Z,33.04
2017-08-22T13:28:14.029Z,32.93
2017-08-22T13:30:41.487Z,35.43
2017-08-22T13:33:09.014Z,33.40
2017-08-22T13:38:13.160Z,33.68
2017-08-22T13:40:40.608Z,33.38
2017-08-22T13:43:08.088Z,32.20
2017-08-22T13:45:35.533Z,33.47
2017-08-22T13:48:02.998Z,32.65
2017-08-22T13:50:30.501Z,31.82
2017-08-22T13:52:57.940Z,33.19
2017-08-22T13:55:25.406Z,33.42
2017-08-22T13:57:52.880Z,34.70
2017-08-22T14:00:20.353Z,34.85
2017-08-22T14:02:47.801Z,35.22
2017-08-22T14:05:15.272Z,35.68
2017-08-22T14:07:42.733Z,36.15
2017-08-22T14:10:10.208Z,36.53
2017-08-22T14:12:37.775Z,37.48
2017-08-22T14:15:05.241Z,35.68
2017-08-22T14:17:32.718Z,36.92
2017-08-22T14:20:00.166Z,37.10
2017-08-22T14:22:27.631Z,36.76
2017-08-22T14:24:55.092Z,37.05
2017-08-22T14:27:22.538Z,37.10
2017-08-22T14:29:50.010Z,35.64
2017-08-22T14:32:17.455Z,37.67
2017-08-22T14:34:44.929Z,37.58
2017-08-22T14:37:12.400Z,37.77
2017-08-22T14:39:39.843Z,36.36
2017-08-22T14:42:07.300Z,36.76
2017-08-22T14:44:34.795Z,34.98
2017-08-22T14:47:02.262Z,35.21
2017-08-22T14:49:29.702Z,33.23
2017-08-22T14:51:57.169Z,33.78
2017-08-22T14:54:24.618Z,33.49
2017-08-22T14:56:52.073Z,33.53
2017-08-22T14:59:19.541Z,32.97
2017-08-22T15:01:46.985Z,33.65
2017-08-22T15:04:14.453Z,33.00
2017-08-22T15:06:41.904Z,34.15
2017-08-22T15:09:09.369Z,34.24
2017-08-22T15:11:36.821Z,33.21
2017-08-22T15:14:04.286Z,37.47
2017-08-22T15:16:31.738Z,34.22
2017-08-22T15:18:59.181Z,34.42
2017-08-22T15:21:26.649Z,35.03
2017-08-22T15:23:54.101Z,33.59
2017-08-22T15:26:21.590Z,33.92
2017-08-22T15:28:49.032Z,33.80
2017-08-22T15:31:16.505Z,33.44
2017-08-22T15:33:43.966Z,33.50
2017-08-22T15:36:11.421Z,33.19
2017-08-22T15:38:38.868Z,33.25
2017-08-22T15:41:06.333Z,32.54
2017-08-22T15:43:33.807Z,32.09
2017-08-22T15:46:01.263Z,32.35
2017-08-22T15:48:28.735Z,32.45
2017-08-22T15:50:56.185Z,32.53
2017-08-22T15:53:23.650Z,32.19
2017-08-22T15:55:51.098Z,30.50
2017-08-22T15:58:18.569Z,31.63
2017-08-22T16:00:46.037Z,33.97
2017-08-22T16:03:13.485Z,34.69
2017-08-22T16:05:40.931Z,36.45
2017-08-22T16:08:08.407Z,35.49
2017-08-22T16:10:35.853Z,36.97
2017-08-22T16:13:03.316Z,38.56
2017-08-22T16:15:30.757Z,36.88
2017-08-22T16:17:58.209Z,35.14
2017-08-22T16:20:25.677Z,35.60
2017-08-22T16:22:53.115Z,36.97
2017-08-22T16:25:20.581Z,35.99
2017-08-22T16:27:48.025Z,34.82
2017-08-22T16:30:15.495Z,35.29
2017-08-22T16:32:42.958Z,35.84
2017-08-22T16:35:10.409Z,36.50
2017-08-22T16:37:37.880Z,35.15
2017-08-22T16:40:05.318Z,35.84
2017-08-22T16:42:32.794Z,35.45
2017-08-22T16:45:01.006Z,35.94
2017-08-22T16:47:28.464Z,36.55
2017-08-22T16:49:55.958Z,36.53
2017-08-22T16:52:23.409Z,39.31
2017-08-22T16:54:50.884Z,40.86
2017-08-22T16:57:18.334Z,41.22
2017-08-22T16:59:45.804Z,40.89
2017-08-22T17:02:13.281Z,40.85
2017-08-22T17:04:40.724Z,41.24
2017-08-22T17:07:08.167Z,40.28
2017-08-22T17:09:35.641Z,41.57
2017-08-22T17:12:03.081Z,42.56
2017-08-22T17:14:30.544Z,42.61
2017-08-22T17:16:58.061Z,44.60
2017-08-22T17:19:25.506Z,43.90
2017-08-22T17:21:52.948Z,44.76
2017-08-22T17:24:20.412Z,45.55
2017-08-22T17:26:47.856Z,44.76
2017-08-22T17:29:15.327Z,45.61
2017-08-22T17:31:43.695Z,45.63
2017-08-22T17:34:11.141Z,44.82
2017-08-22T17:36:38.606Z,46.00
2017-08-22T17:39:06.047Z,45.76
2017-08-22T17:41:33.521Z,46.53
2017-08-22T17:44:00.970Z,45.66
2017-08-22T17:46:28.438Z,47.36
2017-08-22T17:48:55.958Z,48.11
2017-08-22T17:51:23.436Z,48.14
2017-08-22T17:53:50.904Z,48.45
2017-08-22T17:56:18.345Z,51.83
2017-08-22T17:58:45.825Z,50.86
2017-08-22T18:01:13.266Z,50.26
2017-08-22T18:03:40.729Z,52.21
2017-08-22T18:06:08.181Z,51.79
2017-08-22T18:08:35.645Z,51.25
2017-08-22T18:11:03.116Z,51.84
2017-08-22T18:13:30.562Z,52.63
2017-08-22T18:15:58.033Z,52.83
2017-08-22T18:18:25.506Z,53.16
2017-08-22T18:20:52.949Z,53.08
2017-08-22T18:23:20.413Z,53.46
2017-08-22T18:25:47.881Z,53.39
2017-08-22T18:28:15.324Z,54.43
2017-08-22T18:30:42.797Z,54.20
2017-08-22T18:33:10.249Z,54.23
2017-08-22T18:35:37.708Z,55.51
2017-08-22T18:38:05.156Z,56.79
2017-08-22T18:40:32.601Z,57.68
2017-08-22T18:43:00.075Z,58.72
2017-08-22T18:45:27.539Z,59.32
2017-08-22T18:47:55.001Z,59.96
2017-08-22T18:50:22.457Z,60.55
2017-08-22T18:52:49.900Z,61.68
2017-08-22T18:55:17.381Z,62.05
2017-08-22T18:57:44.845Z,62.02
2017-08-22T19:00:12.298Z,62.54
2017-08-22T19:02:39.734Z,62.26
2017-08-22T19:05:07.215Z,61.91
2017-08-22T19:07:34.662Z,63.32
2017-08-22T19:10:02.111Z,63.92
2017-08-22T19:12:29.594Z,64.43
2017-08-22T19:14:57.066Z,64.49
2017-08-22T19:17:24.517Z,66.44
2017-08-22T19:19:51.981Z,65.89
2017-08-22T19:22:19.421Z,67.11
2017-08-22T19:24:46.868Z,65.45
2017-08-22T19:27:14.338Z,65.79
2017-08-22T19:29:41.825Z,65.89
2017-08-22T19:32:09.276Z,67.89
2017-08-22T19:34:36.730Z,68.00
2017-08-22T19:37:04.201Z,68.56
2017-08-22T19:39:31.825Z,68.91
2017-08-22T19:41:59.311Z,67.99
2017-08-22T19:44:26.972Z,66.40
2017-08-22T19:46:54.884Z,66.11
2017-08-22T19:49:22.357Z,66.21
2017-08-22T19:51:50.127Z,67.25
2017-08-22T19:54:17.664Z,68.85
2017-08-22T19:56:45.416Z,67.89
2017-08-22T19:59:12.893Z,68.11
2017-08-22T20:01:40.900Z,67.23
2017-08-22T20:04:08.363Z,67.05
2017-08-22T20:06:35.888Z,66.61
2017-08-22T20:09:03.342Z,67.91
2017-08-22T20:11:30.814Z,69.78
2017-08-22T20:13:58.253Z,73.05
2017-08-22T20:16:25.730Z,72.62
2017-08-22T20:18:53.212Z,72.03
2017-08-22T20:21:20.667Z,72.38
2017-08-22T20:23:48.145Z,73.05
2017-08-22T20:26:15.600Z,75.26
2017-08-22T20:28:43.070Z,75.23
2017-08-22T20:31:10.562Z,74.56
2017-08-22T20:33:38.011Z,74.27
2017-08-22T20:36:05.488Z,73.72
2017-08-22T20:38:32.929Z,74.43
2017-08-22T20:41:00.380Z,74.96
2017-08-22T20:43:27.855Z,76.21
2017-08-22T20:45:55.304Z,75.60
2017-08-22T20:48:22.769Z,74.67
2017-08-22T20:50:50.210Z,75.17
2017-08-22T20:53:17.671Z,74.94
2017-08-22T20:55:45.121Z,74.63
2017-08-22T20:58:12.593Z,75.43
2017-08-22T21:00:40.041Z,75.76
2017-08-22T21:03:07.509Z,77.75
2017-08-22T21:05:34.972Z,77.99
2017-08-22T21:08:02.430Z,77.16
2017-08-22T21:10:29.909Z,76.36
2017-08-22T21:12:57.344Z,77.01
2017-08-22T21:15:24.788Z,77.24
2017-08-22T21:17:52.271Z,76.57
2017-08-22T21:20:19.726Z,77.25
2017-08-22T21:22:47.174Z,78.09
2017-08-22T21:25:14.641Z,78.73
2017-08-22T21:27:42.088Z,78.09
2017-08-22T21:30:09.641Z,77.93
2017-08-22T21:32:37.088Z,77.30
2017-08-22T21:35:04.537Z,77.25
2017-08-22T21:37:32.013Z,77.15
2017-08-22T21:39:59.453Z,76.96
2017-08-22T21:42:26.931Z,78.16
2017-08-22T21:44:54.384Z,78.86
2017-08-22T21:47:21.838Z,77.81
2017-08-22T21:49:49.312Z,78.09
2017-08-22T21:52:16.781Z,80.36
2017-08-22T21:54:44.233Z,78.33
2017-08-22T21:57:11.680Z,78.06
2017-08-22T21:59:39.148Z,78.29
2017-08-22T22:02:06.593Z,78.70
2017-08-22T22:04:34.060Z,80.08
2017-08-22T22:07:01.517Z,80.42
2017-08-22T22:09:28.997Z,81.30
2017-08-22T22:11:56.468Z,82.60
2017-08-22T22:14:23.933Z,82.18
2017-08-22T22:16:51.381Z,81.93
2017-08-22T22:19:18.835Z,84.04
2017-08-22T22:21:46.293Z,81.69
2017-08-22T22:24:13.760Z,81.43
2017-08-22T22:26:41.216Z,80.96
2017-08-22T22:29:08.689Z,81.69
2017-08-22T22:31:36.134Z,82.19
2017-08-22T22:34:03.578Z,83.27
2017-08-22T22:36:31.048Z,84.56
2017-08-22T22:38:58.529Z,84.46
2017-08-22T22:41:25.977Z,84.55
2017-08-22T22:43:53.424Z,83.48
2017-08-22T22:46:20.893Z,84.49
2017-08-22T22:48:48.342Z,82.73
2017-08-22T22:51:15.815Z,83.73
2017-08-22T22:53:43.286Z,84.97
2017-08-22T22:56:10.740Z,86.05
2017-08-22T22:58:38.188Z,86.78
2017-08-22T23:01:05.656Z,86.28
2017-08-22T23:03:33.100Z,85.53
2017-08-22T23:06:00.586Z,85.67
2017-08-22T23:08:28.029Z,85.43
2017-08-22T23:10:55.491Z,85.13
2017-08-22T23:13:22.981Z,87.10
2017-08-22T23:15:50.492Z,86.75
2017-08-22T23:18:17.950Z,87.34
2017-08-22T23:20:45.416Z,87.05
2017-08-22T23:23:12.859Z,87.10
2017-08-22T23:25:40.333Z,87.78
2017-08-22T23:28:07.787Z,87.82
2017-08-22T23:30:35.239Z,88.35
2017-08-22T23:33:02.720Z,87.96
2017-08-22T23:35:30.174Z,88.42
2017-08-22T23:37:57.641Z,87.73
2017-08-22T23:40:25.084Z,89.83
2017-08-22T23:42:58.073Z,89.82
2017-08-22T23:45:25.545Z,89.36
2017-08-22T23:47:53.021Z,91.94
2017-08-22T23:50:20.463Z,92.60
2017-08-22T23:52:47.912Z,92.52
2017-08-22T23:55:15.389Z,92.76
2017-08-22T23:57:42.841Z,92.79
